Terminal Aerodrome Forecast
Issued by NWS

Current Version | Previous Version | Text Only | Print | Product List | Glossary On
Versions: 1 2 3 4 5 6 7 8 9 10 11 12 13 14 15 16 17 18 19 20 21 22 23 24 25 26 27 28 29
000
FTUS41 KOKX 190840 AAB
TAFSWF
TAF AMD
KSWF 190840Z 1909/2012 00000KT 2SM BR SCT010 BKN020
     FM191100 VRB03KT 4SM BR SCT010 BKN025
     FM191300 28005KT P6SM SCT025 BKN040
     FM191500 30006KT P6SM FEW025 SCT040
     FM200200 VRB03KT P6SM SCT020
     FM200700 VRB03KT 2SM BR BKN008
      AMD NOT SKED=

USA.gov is the U.S. government's official web portal to all federal, state and local government web resources and services.